Fork, North Carolina
Current Conditions -  °F | °C
As of 9:54 PM on Sunday 21 Dec 2014 (Local Time) from KINT Reporting Station
Overcast Overcast  
Wind Chill: 37°   Ceiling: 4200
Heat Index: 41°   Visibility: 10mi
Dew Point: 33°   Wind: 6mph
Humidity: 73%   Direction: 40°NE
Pressure: 30.22"   Gusts: NA
Location:  36.0107°N, 80.4503°W
Report Text: KINT 220254Z AUTO 04005KT 10SM OVC042 05/01 A3022 RMK AO2 SLP237 T00500006 58001
Loading
Personal Weather Stations






























Interactive Weather Map New forecast layout! Learn more

10-Day Weather Forecast

Advertisements
Track Severe Weather on mobile